Time;durP1;ratioP1;P1;durP2;ratioP2;P2;SDS_P1;SDS_P2;PMS_P1;PMS_P2;Temp;Humidity;BMP_temperature;BMP_pressure;BME280_temperature;BME280_humidity;BME280_pressure;Samples;Min_cycle;Max_cycle;Signal;HPM_P1;HPM_P2
2023/05/14 00:00:15;;;;;;;21.95;9.00;;;14.00;99.90;;;;;;5052144;28;20135;-42
2023/05/14 00:02:41;;;;;;;11.95;8.07;;;14.00;99.90;;;;;;5056049;28;20024;-42
2023/05/14 00:05:07;;;;;;;29.48;10.15;;;14.00;99.90;;;;;;5055751;28;20499;-42
2023/05/14 00:07:33;;;;;;;13.15;9.02;;;14.00;99.90;;;;;;5055698;28;20464;-42
2023/05/14 00:09:59;;;;;;;16.15;8.30;;;14.00;99.90;;;;;;5055666;28;20028;-41
2023/05/14 00:12:25;;;;;;;12.43;8.95;;;14.00;99.90;;;;;;5055515;28;20033;-45
2023/05/14 00:14:52;;;;;;;18.75;10.05;;;14.00;99.90;;;;;;5055792;28;20496;-43
2023/05/14 00:17:18;;;;;;;14.68;9.02;;;13.90;99.90;;;;;;5055788;28;20469;-42
2023/05/14 00:19:43;;;;;;;14.52;8.52;;;13.80;99.90;;;;;;5054206;28;20107;-41
2023/05/14 00:22:09;;;;;;;18.55;8.73;;;13.80;99.90;;;;;;5055386;28;20435;-45
2023/05/14 00:24:35;;;;;;;13.35;8.73;;;13.80;99.90;;;;;;5054137;28;20087;-43
2023/05/14 00:27:02;;;;;;;21.80;8.95;;;13.80;99.90;;;;;;5055266;28;20371;-41
2023/05/14 00:29:28;;;;;;;25.88;9.57;;;13.90;99.90;;;;;;5055354;28;20525;-43
2023/05/14 00:31:53;;;;;;;14.63;9.25;;;13.90;99.90;;;;;;5055234;28;20103;-43
2023/05/14 00:34:19;;;;;;;28.60;9.55;;;13.80;99.90;;;;;;5055410;28;20152;-44
2023/05/14 00:36:45;;;;;;;17.83;9.05;;;13.90;99.90;;;;;;5055002;28;20021;-43
2023/05/14 00:39:11;;;;;;;14.02;8.65;;;13.80;99.90;;;;;;5055118;28;20025;-42
2023/05/14 00:41:37;;;;;;;23.52;9.10;;;13.80;99.90;;;;;;5055033;28;20021;-44
2023/05/14 00:44:03;;;;;;;25.20;8.77;;;13.80;99.90;;;;;;5054995;28;20033;-41
2023/05/14 00:46:29;;;;;;;24.75;9.18;;;13.80;99.90;;;;;;5055237;28;20033;-42
2023/05/14 00:48:55;;;;;;;21.33;10.00;;;13.80;99.90;;;;;;5054953;28;20504;-40
2023/05/14 00:51:21;;;;;;;12.15;7.72;;;13.80;99.90;;;;;;5054839;28;20033;-42
2023/05/14 00:53:47;;;;;;;19.92;8.40;;;13.80;99.90;;;;;;5053465;28;20414;-43
2023/05/14 00:56:14;;;;;;;19.55;8.07;;;13.80;99.90;;;;;;5054758;28;20017;-42
2023/05/14 00:58:40;;;;;;;14.35;8.27;;;13.80;99.90;;;;;;5054778;28;20025;-46
2023/05/14 01:01:06;;;;;;;21.45;9.25;;;13.80;99.90;;;;;;5054633;28;20028;-43
2023/05/14 01:03:32;;;;;;;19.00;8.80;;;13.70;99.90;;;;;;5054226;28;20032;-42
2023/05/14 01:06:08;;;;;;;18.65;8.10;;;13.70;99.90;;;;;;5054310;28;20589;-39
2023/05/14 01:09:02;;;;;;;17.75;8.70;;;13.70;99.90;;;;;;5054660;28;20540;-40
2023/05/14 01:11:27;;;;;;;13.32;7.88;;;13.70;99.90;;;;;;5054726;28;20500;-43
2023/05/14 01:14:17;;;;;;;23.92;8.45;;;13.60;99.90;;;;;;5054435;28;20056;-43
2023/05/14 01:16:44;;;;;;;11.20;7.88;;;13.60;99.90;;;;;;5054421;28;20124;-44
2023/05/14 01:19:28;;;;;;;20.70;9.25;;;13.60;99.90;;;;;;5054465;28;20021;-42
2023/05/14 01:21:54;;;;;;;17.27;9.10;;;13.50;99.90;;;;;;5054289;28;20032;-43
2023/05/14 01:24:20;;;;;;;13.50;8.32;;;13.50;99.90;;;;;;5054559;28;20104;-44
2023/05/14 01:26:45;;;;;;;20.48;8.25;;;13.50;99.90;;;;;;5054466;28;20024;-43
2023/05/14 01:29:27;;;;;;;18.65;9.93;;;13.40;99.90;;;;;;5054187;28;20075;-41
2023/05/14 01:31:56;;;;;;;16.42;7.82;;;13.40;99.90;;;;;;5054122;28;20489;-44
2023/05/14 01:34:24;;;;;;;15.88;7.82;;;13.40;99.90;;;;;;5054037;28;20052;-41
2023/05/14 01:36:52;;;;;;;15.95;8.10;;;13.40;99.90;;;;;;5053851;28;20366;-43
2023/05/14 01:39:19;;;;;;;14.32;8.32;;;13.40;99.90;;;;;;5053958;28;20051;-44
2023/05/14 01:41:46;;;;;;;17.55;9.10;;;13.40;99.90;;;;;;5053957;28;20029;-40
2023/05/14 01:44:12;;;;;;;13.02;7.65;;;13.40;99.90;;;;;;5052661;28;20056;-41
2023/05/14 01:46:37;;;;;;;13.52;7.75;;;13.40;99.90;;;;;;5053820;28;20465;-44
2023/05/14 01:49:03;;;;;;;14.90;9.40;;;13.40;99.90;;;;;;5053811;28;20025;-41
2023/05/14 01:51:29;;;;;;;14.77;8.48;;;13.40;99.90;;;;;;5053741;28;20481;-43
2023/05/14 01:53:55;;;;;;;17.92;8.38;;;13.40;99.90;;;;;;5053472;28;20048;-42
2023/05/14 01:56:22;;;;;;;13.38;8.27;;;13.40;99.90;;;;;;5053552;28;20025;-41
2023/05/14 01:58:48;;;;;;;14.80;8.23;;;13.30;99.90;;;;;;5053934;28;20028;-43
2023/05/14 02:01:14;;;;;;;10.98;7.05;;;13.30;99.90;;;;;;5052212;28;20385;-40
2023/05/14 02:03:39;;;;;;;14.55;7.97;;;13.30;99.90;;;;;;5052363;28;20056;-42
2023/05/14 02:06:05;;;;;;;19.58;7.93;;;13.30;99.90;;;;;;5053489;28;20036;-42
2023/05/14 02:08:31;;;;;;;14.30;7.28;;;13.30;99.90;;;;;;5053657;28;20473;-42
2023/05/14 02:10:57;;;;;;;14.57;8.68;;;13.30;99.90;;;;;;5052082;28;20025;-44
2023/05/14 02:13:23;;;;;;;13.07;8.43;;;13.40;99.90;;;;;;5053277;28;20021;-43
2023/05/14 02:15:49;;;;;;;10.45;6.75;;;13.40;99.90;;;;;;5053243;28;20020;-41
2023/05/14 02:18:15;;;;;;;19.67;9.02;;;13.30;99.90;;;;;;5053277;28;20389;-42
2023/05/14 02:20:40;;;;;;;14.52;7.45;;;13.30;99.90;;;;;;5053135;28;20021;-42
2023/05/14 02:23:06;;;;;;;17.27;8.73;;;13.30;99.90;;;;;;5052923;28;20071;-40
2023/05/14 02:25:32;;;;;;;15.60;8.13;;;13.30;99.90;;;;;;5053001;28;20032;-42
2023/05/14 02:27:57;;;;;;;18.15;8.07;;;13.30;99.90;;;;;;5053109;28;20504;-42
2023/05/14 02:30:23;;;;;;;13.77;7.80;;;13.20;99.90;;;;;;5053035;28;20146;-41
2023/05/14 02:32:49;;;;;;;12.80;8.07;;;13.20;99.90;;;;;;5053025;28;20490;-46
2023/05/14 02:35:14;;;;;;;16.55;8.32;;;13.20;99.90;;;;;;5052883;28;20029;-45
2023/05/14 02:37:40;;;;;;;14.43;8.77;;;13.30;99.90;;;;;;5052807;28;20385;-45
2023/05/14 02:40:06;;;;;;;12.70;7.75;;;13.30;99.90;;;;;;5053019;28;20139;-43
2023/05/14 02:42:32;;;;;;;14.07;7.22;;;13.20;99.90;;;;;;5052892;28;20428;-41
2023/05/14 02:44:57;;;;;;;15.57;8.30;;;13.20;99.90;;;;;;5052932;28;20044;-44
2023/05/14 02:47:23;;;;;;;17.98;8.52;;;13.10;99.90;;;;;;5052815;28;20150;-43
2023/05/14 02:49:49;;;;;;;20.92;8.32;;;13.20;99.90;;;;;;5052874;28;20033;-40
2023/05/14 02:52:14;;;;;;;14.43;8.57;;;13.10;99.90;;;;;;5053028;28;20420;-42
2023/05/14 02:54:40;;;;;;;15.50;8.32;;;13.10;99.90;;;;;;5052606;28;20044;-43
2023/05/14 02:57:06;;;;;;;18.10;8.48;;;13.10;99.90;;;;;;5052706;28;20025;-41
2023/05/14 02:59:31;;;;;;;15.57;8.57;;;13.00;99.90;;;;;;5052794;28;20021;-43
2023/05/14 03:01:57;;;;;;;15.07;9.10;;;13.00;99.90;;;;;;5052659;28;20056;-44
2023/05/14 03:04:22;;;;;;;14.10;8.30;;;13.00;99.90;;;;;;5052991;28;20032;-43
2023/05/14 03:06:48;;;;;;;16.00;9.07;;;13.00;99.90;;;;;;5051484;28;20493;-43
2023/05/14 03:09:14;;;;;;;17.13;9.38;;;13.10;99.90;;;;;;5052657;28;20024;-43
2023/05/14 03:11:39;;;;;;;17.90;8.23;;;13.00;99.90;;;;;;5052562;28;20025;-43
2023/05/14 03:14:05;;;;;;;20.05;8.73;;;13.00;99.90;;;;;;5052598;28;20037;-45
2023/05/14 03:16:30;;;;;;;15.15;8.50;;;13.00;99.90;;;;;;5052795;28;20017;-41
2023/05/14 03:18:56;;;;;;;17.80;8.60;;;13.00;99.90;;;;;;5052592;28;20033;-41
2023/05/14 03:21:22;;;;;;;20.10;8.55;;;13.00;99.90;;;;;;5051306;28;20123;-41
2023/05/14 03:23:47;;;;;;;17.17;8.82;;;13.00;99.90;;;;;;5052505;28;20033;-45
2023/05/14 03:26:13;;;;;;;14.25;8.70;;;12.90;99.90;;;;;;5051189;28;20021;-48
2023/05/14 03:28:39;;;;;;;16.25;9.18;;;12.90;99.90;;;;;;5052464;28;20441;-41
2023/05/14 03:31:05;;;;;;;20.27;9.23;;;12.90;99.90;;;;;;5052387;28;20366;-43
2023/05/14 03:33:31;;;;;;;20.25;9.30;;;12.90;99.90;;;;;;5052403;28;20036;-43
2023/05/14 03:35:56;;;;;;;22.45;9.93;;;12.80;99.90;;;;;;5053511;28;20135;-45
2023/05/14 03:38:22;;;;;;;18.65;8.98;;;12.90;99.90;;;;;;5056160;28;20020;-41
2023/05/14 03:40:47;;;;;;;25.02;9.88;;;12.80;99.90;;;;;;5056214;28;20078;-45
2023/05/14 03:43:13;;;;;;;19.85;9.20;;;12.80;99.90;;;;;;5056231;28;20147;-44
2023/05/14 03:45:39;;;;;;;20.17;10.45;;;12.80;99.90;;;;;;5056050;28;20025;-45
2023/05/14 03:48:05;;;;;;;15.60;8.35;;;12.80;99.90;;;;;;5056008;28;20020;-47
2023/05/14 03:50:30;;;;;;;18.73;8.48;;;12.90;99.90;;;;;;5056106;28;20021;-41
2023/05/14 03:52:56;;;;;;;18.52;9.57;;;12.80;99.90;;;;;;5054802;28;20111;-41
2023/05/14 03:55:22;;;;;;;21.35;8.38;;;12.90;99.90;;;;;;5055978;28;20021;-47
2023/05/14 03:57:48;;;;;;;19.35;9.40;;;12.90;99.90;;;;;;5055851;28;20104;-41
2023/05/14 04:00:14;;;;;;;18.95;9.52;;;12.90;99.90;;;;;;5055964;28;20024;-42
2023/05/14 04:02:40;;;;;;;18.55;8.85;;;13.00;99.90;;;;;;5054543;28;20158;-42
2023/05/14 04:05:06;;;;;;;13.48;8.43;;;13.00;99.90;;;;;;5055770;28;20490;-41
2023/05/14 04:07:31;;;;;;;11.20;7.97;;;13.00;99.90;;;;;;5056024;28;20393;-42
2023/05/14 04:09:58;;;;;;;14.82;8.07;;;13.00;99.90;;;;;;5055719;28;20025;-43
2023/05/14 04:12:25;;;;;;;17.60;8.43;;;13.00;99.90;;;;;;5055643;28;20111;-42
2023/05/14 04:14:51;;;;;;;12.00;7.53;;;13.10;99.90;;;;;;5055848;28;20466;-42
2023/05/14 04:17:16;;;;;;;15.05;8.10;;;13.10;99.90;;;;;;5055762;28;20029;-46
2023/05/14 04:19:42;;;;;;;13.90;8.90;;;13.10;99.90;;;;;;5054362;28;20056;-46
2023/05/14 04:22:08;;;;;;;19.70;8.40;;;13.10;99.90;;;;;;5055424;28;20028;-42
2023/05/14 04:24:33;;;;;;;17.73;8.13;;;13.10;99.90;;;;;;5054177;28;20039;-45
2023/05/14 04:26:59;;;;;;;18.63;8.00;;;13.10;99.90;;;;;;5055315;28;20112;-43
2023/05/14 04:29:25;;;;;;;15.07;7.55;;;13.10;99.90;;;;;;5055617;28;20024;-42
2023/05/14 04:31:50;;;;;;;14.75;8.05;;;13.10;99.90;;;;;;5055236;28;20027;-44
2023/05/14 04:34:16;;;;;;;18.77;8.38;;;13.10;99.90;;;;;;5055252;28;20032;-43
2023/05/14 04:36:42;;;;;;;18.85;8.25;;;13.10;99.90;;;;;;5053858;28;20538;-44
2023/05/14 04:39:11;;;;;;;14.15;8.35;;;13.10;99.90;;;;;;5055169;28;20100;-40
2023/05/14 04:41:37;;;;;;;14.35;8.68;;;13.10;99.90;;;;;;5055034;28;20029;-42
2023/05/14 04:44:03;;;;;;;20.75;8.18;;;13.10;99.90;;;;;;5055038;28;20128;-41
2023/05/14 04:46:28;;;;;;;24.83;8.70;;;13.10;99.90;;;;;;5053704;28;20622;-44
2023/05/14 04:48:55;;;;;;;15.35;7.88;;;13.10;99.90;;;;;;5054996;28;20040;-42
2023/05/14 04:51:21;;;;;;;22.27;8.98;;;13.20;99.90;;;;;;5055158;28;20083;-41
2023/05/14 04:53:47;;;;;;;19.13;8.48;;;13.10;99.90;;;;;;5054603;28;20041;-44
2023/05/14 04:56:12;;;;;;;15.25;8.10;;;13.20;99.90;;;;;;5055107;28;20025;-45
2023/05/14 04:58:38;;;;;;;16.63;7.90;;;13.10;99.90;;;;;;5054783;28;20087;-47
2023/05/14 05:01:04;;;;;;;18.05;8.07;;;13.20;99.90;;;;;;5054867;28;20033;-45
2023/05/14 05:03:30;;;;;;;14.25;7.85;;;13.20;99.90;;;;;;5054983;28;20025;-42
2023/05/14 05:05:56;;;;;;;19.38;7.82;;;13.20;99.90;;;;;;5054668;28;20120;-43
2023/05/14 05:08:22;;;;;;;17.23;7.93;;;13.30;99.90;;;;;;5054616;28;20036;-41
2023/05/14 05:10:47;;;;;;;13.80;7.60;;;13.30;99.90;;;;;;5053248;28;20493;-45
2023/05/14 05:13:14;;;;;;;16.60;7.90;;;13.30;99.90;;;;;;5054473;28;20025;-43
2023/05/14 05:15:39;;;;;;;16.77;9.05;;;13.30;99.90;;;;;;5054381;28;20092;-44
2023/05/14 05:18:05;;;;;;;13.93;7.82;;;13.30;99.90;;;;;;5054444;28;20128;-46
2023/05/14 05:20:31;;;;;;;12.55;7.82;;;13.30;99.90;;;;;;5054293;28;20381;-43
2023/05/14 05:22:57;;;;;;;15.02;8.90;;;13.30;99.90;;;;;;5054340;28;20127;-43
2023/05/14 05:25:22;;;;;;;22.38;9.68;;;13.40;99.90;;;;;;5054317;28;20021;-44
2023/05/14 05:27:48;;;;;;;11.77;7.20;;;13.40;99.90;;;;;;5054495;28;20036;-46
2023/05/14 05:30:14;;;;;;;11.70;7.82;;;13.40;99.90;;;;;;5054206;28;20033;-45
2023/05/14 05:32:39;;;;;;;18.73;8.25;;;13.40;99.90;;;;;;5054378;28;20477;-44
2023/05/14 05:35:05;;;;;;;22.13;8.27;;;13.50;99.90;;;;;;5054261;28;20021;-45
2023/05/14 05:37:31;;;;;;;11.77;7.47;;;13.50;99.90;;;;;;5053912;28;20056;-48
2023/05/14 05:39:57;;;;;;;13.73;7.65;;;13.50;99.90;;;;;;5054042;28;20052;-43
2023/05/14 05:42:23;;;;;;;18.90;8.32;;;13.50;99.90;;;;;;5052662;28;20486;-44
2023/05/14 05:44:48;;;;;;;12.68;7.47;;;13.50;99.90;;;;;;5053870;28;20021;-45
2023/05/14 05:47:15;;;;;;;11.65;7.68;;;13.50;99.90;;;;;;5053758;28;20075;-42
2023/05/14 05:49:41;;;;;;;15.50;7.43;;;13.60;99.90;;;;;;5053815;28;20025;-46
2023/05/14 05:52:07;;;;;;;12.57;6.88;;;13.70;99.90;;;;;;5053718;28;20031;-44
2023/05/14 05:54:33;;;;;;;15.90;8.43;;;13.80;99.90;;;;;;5053485;28;20408;-45
2023/05/14 05:56:58;;;;;;;11.93;7.63;;;13.80;99.90;;;;;;5053898;28;20075;-42
2023/05/14 05:59:24;;;;;;;12.02;7.53;;;13.90;99.90;;;;;;5051295;28;20036;-43
2023/05/14 06:01:50;;;;;;;12.65;7.53;;;14.00;99.90;;;;;;5053762;28;20028;-44
2023/05/14 06:04:15;;;;;;;16.92;7.47;;;14.10;99.90;;;;;;5053593;28;20082;-41
2023/05/14 06:06:41;;;;;;;15.50;8.23;;;14.00;99.90;;;;;;5051777;28;20033;-43
2023/05/14 06:09:07;;;;;;;15.68;7.78;;;14.10;99.90;;;;;;5053385;28;20024;-43
2023/05/14 06:11:33;;;;;;;15.93;7.63;;;14.10;99.90;;;;;;5053363;28;20031;-44
2023/05/14 06:13:59;;;;;;;12.57;7.45;;;14.10;99.90;;;;;;5053598;28;20389;-45
2023/05/14 06:16:25;;;;;;;20.63;8.88;;;14.20;99.90;;;;;;5053219;28;20095;-31
2023/05/14 06:18:54;;;;;;;11.77;7.13;;;14.40;99.90;;;;;;5053319;28;20021;-35
2023/05/14 06:21:20;;;;;;;19.80;7.45;;;14.60;99.90;;;;;;5053385;28;20378;-39
2023/05/14 06:23:46;;;;;;;16.55;8.52;;;14.60;99.90;;;;;;5053228;28;20025;-34
2023/05/14 06:26:11;;;;;;;9.35;7.15;;;14.50;99.90;;;;;;5053113;28;20036;-36
2023/05/14 06:28:37;;;;;;;14.75;7.50;;;14.50;99.90;;;;;;5053432;28;20250;-36
2023/05/14 06:31:03;;;;;;;11.60;8.00;;;14.50;99.90;;;;;;5053344;28;20044;-36
2023/05/14 06:33:29;;;;;;;16.45;8.57;;;14.40;99.90;;;;;;5052969;28;20109;-34
2023/05/14 06:36:04;;;;;;;12.25;7.65;;;14.50;99.90;;;;;;5053246;28;20584;-36
2023/05/14 06:38:30;;;;;;;20.67;9.55;;;14.70;99.90;;;;;;5053166;28;20029;-39
2023/05/14 06:40:56;;;;;;;15.50;9.27;;;14.80;99.90;;;;;;5053158;28;20024;-37
2023/05/14 06:43:21;;;;;;;14.95;8.55;;;14.60;99.90;;;;;;5052850;28;20024;-40
2023/05/14 06:45:50;;;;;;;13.95;8.52;;;14.50;99.90;;;;;;5052875;28;20036;-38
2023/05/14 06:48:19;;;;;;;11.15;7.95;;;14.50;99.90;;;;;;5052837;28;20021;-37
2023/05/14 06:50:46;;;;;;;17.67;8.00;;;14.60;99.90;;;;;;5052754;28;20397;-41
2023/05/14 06:53:12;;;;;;;17.33;8.70;;;14.70;99.90;;;;;;5052486;28;20041;-37
2023/05/14 06:55:38;;;;;;;14.00;8.70;;;14.80;99.90;;;;;;5051477;28;20660;-35
2023/05/14 06:58:06;;;;;;;14.10;8.10;;;14.90;99.90;;;;;;5052778;28;20032;-38
2023/05/14 07:00:31;;;;;;;14.45;7.40;;;15.20;99.90;;;;;;5052999;28;20488;-33
2023/05/14 07:02:57;;;;;;;14.27;7.88;;;15.40;99.90;;;;;;5052710;28;20029;-36
2023/05/14 07:05:23;;;;;;;10.88;7.85;;;15.40;99.90;;;;;;5052650;28;20033;-38
2023/05/14 07:07:49;;;;;;;18.20;7.65;;;15.20;99.90;;;;;;5052905;28;20478;-37
2023/05/14 07:10:15;;;;;;;14.70;7.82;;;15.10;99.90;;;;;;5054455;28;20087;-38
2023/05/14 07:12:41;;;;;;;13.50;7.05;;;15.00;99.90;;;;;;5056720;28;20039;-39
2023/05/14 07:15:07;;;;;;;12.02;7.43;;;15.10;99.90;;;;;;5056923;28;20048;-35
2023/05/14 07:17:33;;;;;;;11.40;6.95;;;15.20;99.90;;;;;;5056634;28;20525;-39
2023/05/14 07:19:58;;;;;;;17.60;7.63;;;15.40;99.90;;;;;;5056856;28;20117;-33
2023/05/14 07:22:24;;;;;;;11.02;7.20;;;15.80;99.90;;;;;;5056750;28;20444;-36
2023/05/14 07:24:50;;;;;;;13.43;6.88;;;16.20;99.90;;;;;;5056835;28;20043;-34
2023/05/14 07:27:18;;;;;;;18.20;7.07;;;16.40;99.90;;;;;;5056447;28;20482;-38
2023/05/14 07:29:44;;;;;;;13.77;6.80;;;16.30;99.90;;;;;;5056498;28;20529;-36
2023/05/14 07:32:09;;;;;;;15.57;7.55;;;16.30;99.90;;;;;;5056620;28;20100;-33
2023/05/14 07:34:35;;;;;;;15.23;6.55;;;16.30;99.90;;;;;;5054940;28;20037;-35
2023/05/14 07:37:01;;;;;;;12.07;5.90;;;16.00;99.90;;;;;;5056433;28;20399;-36
2023/05/14 07:39:26;;;;;;;7.90;5.50;;;16.00;99.90;;;;;;5056310;28;20274;-36
2023/05/14 07:41:53;;;;;;;9.68;6.35;;;15.90;99.90;;;;;;5056160;28;20028;-34
2023/05/14 07:44:19;;;;;;;10.03;5.70;;;15.90;99.90;;;;;;5056390;28;20493;-34
2023/05/14 07:46:46;;;;;;;13.85;6.18;;;15.90;99.90;;;;;;5056324;28;20481;-39
2023/05/14 07:49:11;;;;;;;11.00;5.68;;;15.90;99.90;;;;;;5056117;28;20554;-34
2023/05/14 07:51:37;;;;;;;10.02;5.72;;;16.10;99.90;;;;;;5055965;28;20029;-39
2023/05/14 07:54:03;;;;;;;7.72;6.20;;;16.20;99.90;;;;;;5055766;28;20045;-38
2023/05/14 07:56:29;;;;;;;8.23;5.85;;;16.30;99.90;;;;;;5055872;28;20054;-38
2023/05/14 07:58:55;;;;;;;6.53;5.40;;;16.30;99.90;;;;;;5055795;28;20036;-37
2023/05/14 08:01:21;;;;;;;10.82;5.20;;;16.30;99.90;;;;;;5055750;28;20025;-34
2023/05/14 08:03:47;;;;;;;17.67;5.63;;;16.40;99.90;;;;;;5055763;28;20028;-35
2023/05/14 08:06:12;;;;;;;12.13;6.20;;;16.30;99.90;;;;;;5054447;28;20065;-36
2023/05/14 08:08:38;;;;;;;8.60;4.53;;;16.40;99.90;;;;;;5055969;28;20025;-38
2023/05/14 08:11:04;;;;;;;10.32;4.32;;;16.30;99.90;;;;;;5055614;28;20035;-36
2023/05/14 08:13:30;;;;;;;7.90;4.70;;;16.50;99.90;;;;;;5055870;28;20029;-35
2023/05/14 08:15:55;;;;;;;8.48;3.70;;;16.60;99.90;;;;;;5055574;28;20526;-32
2023/05/14 08:18:21;;;;;;;6.18;3.20;;;16.90;99.90;;;;;;5055591;28;20374;-39
2023/05/14 08:20:47;;;;;;;12.93;4.05;;;17.00;99.90;;;;;;5055398;28;20500;-36
2023/05/14 08:23:12;;;;;;;7.13;3.65;;;17.00;99.90;;;;;;5054848;28;20022;-35
2023/05/14 08:25:38;;;;;;;10.82;4.10;;;16.90;99.90;;;;;;5054440;28;20029;-32
2023/05/14 08:28:04;;;;;;;9.65;3.97;;;17.00;99.90;;;;;;5055704;28;20060;-35
2023/05/14 08:30:30;;;;;;;8.68;3.20;;;17.10;99.90;;;;;;5055565;28;20021;-36
2023/05/14 08:32:58;;;;;;;8.73;4.00;;;17.30;99.90;;;;;;5055309;28;20021;-36
2023/05/14 08:35:24;;;;;;;12.30;4.60;;;17.60;99.90;;;;;;5055073;28;20028;-33
2023/05/14 08:37:50;;;;;;;12.20;4.18;;;17.80;99.90;;;;;;5055229;28;20025;-33
2023/05/14 08:40:16;;;;;;;6.72;4.18;;;17.90;99.90;;;;;;5055093;28;20037;-39
2023/05/14 08:42:43;;;;;;;11.52;3.97;;;18.00;99.90;;;;;;5055010;28;20033;-36
2023/05/14 08:45:16;;;;;;;4.20;3.33;;;18.10;99.90;;;;;;5055001;28;20473;-38
2023/05/14 08:47:49;;;;;;;10.20;4.22;;;18.00;99.90;;;;;;5054916;28;20500;-36
2023/05/14 08:50:15;;;;;;;10.07;3.80;;;18.10;99.90;;;;;;5054946;28;20478;-37
2023/05/14 08:52:40;;;;;;;9.43;4.60;;;18.20;99.90;;;;;;5054832;28;20021;-36
2023/05/14 08:55:07;;;;;;;9.23;3.97;;;17.80;99.90;;;;;;5054570;28;20123;-35
2023/05/14 08:57:34;;;;;;;6.25;3.88;;;17.40;99.90;;;;;;5055055;28;20504;-39
2023/05/14 09:00:04;;;;;;;17.02;3.53;;;17.40;99.90;;;;;;5055068;28;20013;-36
2023/05/14 09:02:31;;;;;;;17.55;3.90;;;17.50;99.90;;;;;;5054758;28;20660;-37
2023/05/14 09:04:58;;;;;;;12.68;4.18;;;17.40;99.90;;;;;;5054655;28;20021;-38
2023/05/14 09:07:24;;;;;;;11.60;3.80;;;17.50;99.90;;;;;;5329621;22;20049;-73
2023/05/14 09:10:02;;;;;;;4.83;3.93;;;17.50;99.90;;;;;;5208454;22;21486;31
2023/05/14 09:12:28;;;;;;;6.45;3.22;;;17.50;99.90;;;;;;5027770;28;20050;-80
2023/05/14 09:14:53;;;;;;;8.07;4.07;;;17.80;99.90;;;;;;5030582;28;20149;-80
2023/05/14 09:17:19;;;;;;;10.23;3.72;;;18.00;99.90;;;;;;5015216;28;20040;-79
2023/05/14 09:19:47;;;;;;;12.05;3.58;;;18.20;99.90;;;;;;5015098;28;20030;-79
2023/05/14 09:22:16;;;;;;;5.75;3.50;;;18.40;99.90;;;;;;5014059;28;20026;-80
2023/05/14 09:24:41;;;;;;;7.10;3.60;;;18.50;99.90;;;;;;5015511;28;20397;-81
2023/05/14 09:27:09;;;;;;;12.40;3.35;;;18.40;99.90;;;;;;5015505;28;20041;-80
2023/05/14 09:29:36;;;;;;;8.60;3.25;;;18.60;99.90;;;;;;5013980;28;20065;-78
2023/05/14 09:32:04;;;;;;;5.47;4.03;;;18.80;99.90;;;;;;5015300;28;20026;-79
2023/05/14 09:34:36;;;;;;;3.58;2.83;;;18.80;99.90;;;;;;5014102;28;20038;-80
2023/05/14 09:37:04;;;;;;;8.65;3.00;;;19.10;99.90;;;;;;5014987;28;20094;-79
2023/05/14 09:39:32;;;;;;;8.57;3.33;;;19.20;99.90;;;;;;5030065;28;20029;-79
2023/05/14 09:41:57;;;;;;;;;;;19.20;99.90;;;;;;5030864;28;20026;-81
2023/05/14 09:44:24;;;;;;;11.57;3.55;;;19.30;99.90;;;;;;5014788;28;19916;-80
2023/05/14 09:46:51;;;;;;;10.40;3.58;;;19.40;99.90;;;;;;5015246;28;20132;-80
2023/05/14 09:49:17;;;;;;;7.47;4.17;;;19.20;99.90;;;;;;5014784;28;20394;-79
2023/05/14 09:51:42;;;;;;;12.05;2.97;;;19.30;99.90;;;;;;5015220;28;20033;-81
2023/05/14 09:54:08;;;;;;;7.57;4.00;;;19.40;99.90;;;;;;5014769;28;20530;-79
2023/05/14 09:56:36;;;;;;;13.32;4.13;;;19.10;99.90;;;;;;5014610;28;20026;-78
2023/05/14 09:59:02;;;;;;;9.65;3.33;;;19.20;99.90;;;;;;5014414;28;20030;-77
2023/05/14 10:01:29;;;;;;;13.40;4.40;;;19.20;99.90;;;;;;5030161;28;20025;-80
2023/05/14 10:03:56;;;;;;;5.45;3.80;;;19.30;99.90;;;;;;5014197;28;20104;-80
2023/05/14 10:06:27;;;;;;;7.75;3.92;;;19.30;99.90;;;;;;5013259;28;20042;-80
2023/05/14 10:09:00;;;;;;;8.40;3.28;;;19.50;99.90;;;;;;5029543;28;20054;-80
2023/05/14 10:11:32;;;;;;;8.90;3.13;;;19.30;99.90;;;;;;5014389;28;20528;-80
2023/05/14 10:14:25;;;;;;;5.63;3.33;;;19.70;99.90;;;;;;5014276;28;20482;-81
2023/05/14 10:16:52;;;;;;;7.95;3.67;;;19.80;99.90;;;;;;5008728;28;20034;-80
2023/05/14 10:19:22;;;;;;;9.23;3.30;;;19.90;99.90;;;;;;5014225;28;20065;-81
2023/05/14 10:21:54;;;;;;;14.32;4.07;;;19.90;99.90;;;;;;5014032;28;20436;-80
2023/05/14 10:24:20;;;;;;;3.95;3.40;;;19.90;99.90;;;;;;5014402;28;20034;-82
2023/05/14 10:26:47;;;;;;;8.60;3.00;;;20.10;99.90;;;;;;5014263;28;20030;-81
2023/05/14 10:29:12;;;;;;;8.65;3.05;;;20.10;99.90;;;;;;5013940;28;20029;-80
2023/05/14 10:31:54;;;;;;;6.15;3.10;;;19.90;99.90;;;;;;5014122;28;20026;-80
2023/05/14 10:34:42;;;;;;;5.88;3.05;;;20.00;99.90;;;;;;5029253;28;20036;-80
2023/05/14 10:37:25;;;;;;;4.75;3.28;;;20.20;99.90;;;;;;5014538;28;20045;-80
2023/05/14 10:39:52;;;;;;;9.00;4.22;;;20.20;99.90;;;;;;5028907;28;20022;-80
2023/05/14 10:42:39;;;;;;;10.55;4.00;;;20.10;99.90;;;;;;5014091;28;20474;-80
2023/05/14 10:45:07;;;;;;;12.98;3.15;;;20.00;99.90;;;;;;5028602;28;20113;-79
2023/05/14 10:47:37;;;;;;;6.57;4.13;;;19.80;99.90;;;;;;5014070;28;20407;-80
2023/05/14 10:50:05;;;;;;;12.25;4.90;;;19.80;99.90;;;;;;5014199;28;20029;-79
2023/05/14 10:52:31;;;;;;;;;;;19.80;99.90;;;;;;5030262;28;20026;-79
2023/05/14 10:55:00;;;;;;;7.47;3.35;;;19.90;99.90;;;;;;5014268;28;19922;-80
2023/05/14 10:57:28;;;;;;;7.50;3.70;;;20.00;99.90;;;;;;5029581;28;20029;-80
2023/05/14 11:00:00;;;;;;;7.18;3.78;;;19.80;99.90;;;;;;5014182;28;20030;-80
2023/05/14 11:02:31;;;;;;;11.00;3.70;;;19.60;99.90;;;;;;5013607;28;20372;-80
2023/05/14 11:05:07;;;;;;;8.93;3.60;;;19.70;99.90;;;;;;5014310;28;20029;-80
2023/05/14 11:07:47;;;;;;;4.47;3.42;;;19.50;99.90;;;;;;5029766;28;20025;-78
2023/05/14 11:10:18;;;;;;;14.05;3.50;;;19.50;99.90;;;;;;5013544;28;20041;-81
2023/05/14 11:12:46;;;;;;;8.63;3.35;;;19.60;99.90;;;;;;5014626;28;20088;-80
2023/05/14 11:15:14;;;;;;;4.90;2.80;;;19.60;99.90;;;;;;5013994;28;20030;-80
2023/05/14 11:17:41;;;;;;;7.88;3.20;;;19.80;99.90;;;;;;5014282;28;20476;-77
2023/05/14 11:20:09;;;;;;;5.93;3.30;;;19.70;99.90;;;;;;5014133;28;20054;-79
2023/05/14 11:22:37;;;;;;;10.68;3.83;;;19.60;99.90;;;;;;5013522;28;20610;-79
2023/05/14 11:25:05;;;;;;;15.45;3.63;;;19.30;99.90;;;;;;5013664;28;20059;-78
2023/05/14 11:27:33;;;;;;;6.78;3.75;;;19.20;99.90;;;;;;5013612;28;20452;-79
2023/05/14 11:29:59;;;;;;;9.27;3.72;;;19.10;99.90;;;;;;5013397;28;20022;-79
2023/05/14 11:32:26;;;;;;;6.47;3.08;;;19.20;99.90;;;;;;5013648;28;20087;-81
2023/05/14 11:34:51;;;;;;;16.00;4.32;;;19.10;99.90;;;;;;5013476;28;20482;-79
2023/05/14 11:37:17;;;;;;;11.25;3.63;;;19.00;99.90;;;;;;5028850;28;20021;-79
2023/05/14 11:39:48;;;;;;;7.07;3.72;;;19.00;99.90;;;;;;5014279;28;20100;-80
2023/05/14 11:42:16;;;;;;;10.45;4.20;;;19.00;99.90;;;;;;5028938;28;20474;-79
2023/05/14 11:44:43;;;;;;;8.05;3.30;;;19.20;99.90;;;;;;5013814;28;20049;-79
2023/05/14 11:47:09;;;;;;;7.72;2.70;;;19.30;99.90;;;;;;5014112;28;20112;-79
2023/05/14 11:49:36;;;;;;;6.97;3.33;;;19.50;99.90;;;;;;5013688;28;20028;-80
2023/05/14 11:52:04;;;;;;;8.52;3.10;;;19.60;99.90;;;;;;5028784;28;20034;-80
2023/05/14 11:54:31;;;;;;;13.35;3.60;;;19.80;99.90;;;;;;5013771;28;20104;-81
2023/05/14 11:57:00;;;;;;;5.63;3.17;;;20.00;99.90;;;;;;5030198;28;20025;-79
2023/05/14 11:59:28;;;;;;;6.10;3.17;;;20.10;99.90;;;;;;5017231;28;20022;-79
2023/05/14 12:02:00;;;;;;;3.38;2.83;;;20.30;99.90;;;;;;5032223;28;20374;-80
2023/05/14 12:04:28;;;;;;;7.57;3.30;;;20.60;99.90;;;;;;5016954;28;20486;-80
2023/05/14 12:06:56;;;;;;;5.43;3.28;;;20.60;99.90;;;;;;5016834;28;20022;-79
2023/05/14 12:09:22;;;;;;;8.85;2.85;;;20.60;99.90;;;;;;5016872;28;20018;-79
2023/05/14 12:11:49;;;;;;;7.57;3.33;;;20.60;99.90;;;;;;5016755;28;20042;-80
2023/05/14 12:14:16;;;;;;;10.68;3.65;;;20.60;99.90;;;;;;5032134;28;20052;-80
2023/05/14 12:16:43;;;;;;;12.05;3.15;;;20.70;99.90;;;;;;5016929;28;20410;-80
2023/05/14 12:19:13;;;;;;;8.32;3.30;;;20.60;99.90;;;;;;5016493;28;20413;-79
2023/05/14 12:21:39;;;;;;;8.70;3.47;;;20.60;99.90;;;;;;5031877;28;20034;-80
2023/05/14 12:24:17;;;;;;;6.65;2.97;;;20.80;99.90;;;;;;5016602;28;20057;-79
2023/05/14 12:26:53;;;;;;;6.18;3.20;;;20.90;99.90;;;;;;5016654;28;20508;-79
2023/05/14 12:29:20;;;;;;;8.20;3.22;;;20.70;99.90;;;;;;5031764;28;20500;-78
2023/05/14 12:31:49;;;;;;;9.57;2.92;;;20.60;99.90;;;;;;5016606;28;20390;-79
2023/05/14 12:34:16;;;;;;;3.95;2.90;;;20.30;99.90;;;;;;5016431;28;20025;-80
2023/05/14 12:36:42;;;;;;;7.25;3.03;;;20.30;99.90;;;;;;5032147;28;20029;-79
2023/05/14 12:39:09;;;;;;;4.43;2.65;;;20.20;99.90;;;;;;5031609;28;20053;-79